createdAt,value
2022-10-20T00:01:43.101Z,54.15
2022-10-20T00:05:43.085Z,54.28
2022-10-20T00:09:41.923Z,54.33
2022-10-20T00:13:47.258Z,55.22
2022-10-20T00:17:46.611Z,56.21
2022-10-20T00:21:46.315Z,57.31
2022-10-20T00:25:46.390Z,56.71
2022-10-20T00:29:50.514Z,56.77
2022-10-20T00:33:49.994Z,57.07
2022-10-20T00:37:49.715Z,56.26
2022-10-20T00:41:48.799Z,55.78
2022-10-20T00:45:56.561Z,55.37
2022-10-20T00:50:10.612Z,55.64
2022-10-20T00:54:12.426Z,55.19
2022-10-20T00:58:12.161Z,55.73
2022-10-20T01:02:14.237Z,56.20
2022-10-20T01:10:15.882Z,56.71
2022-10-20T01:14:30.043Z,57.54
2022-10-20T01:18:41.895Z,57.34
2022-10-20T01:23:08.735Z,57.95
2022-10-20T01:27:39.058Z,59.15
2022-10-20T01:31:45.833Z,59.16
2022-10-20T01:35:57.375Z,58.82
2022-10-20T01:40:04.084Z,58.68
2022-10-20T01:44:10.638Z,59.19
2022-10-20T01:48:13.961Z,59.33
2022-10-20T01:52:14.178Z,60.22
2022-10-20T01:56:18.668Z,59.78
2022-10-20T02:00:20.578Z,59.88
2022-10-20T02:04:27.294Z,60.60
2022-10-20T02:08:33.032Z,61.49
2022-10-20T02:12:37.940Z,61.92
2022-10-20T02:16:50.014Z,61.80
2022-10-20T02:20:52.591Z,61.64
2022-10-20T02:24:52.448Z,61.36
2022-10-20T02:28:57.414Z,61.34
2022-10-20T02:32:59.209Z,61.89
2022-10-20T02:37:00.323Z,62.53
2022-10-20T02:40:59.430Z,62.49
2022-10-20T02:45:02.125Z,62.48
2022-10-20T02:49:03.915Z,62.57
2022-10-20T02:53:03.833Z,63.38
2022-10-20T02:57:03.547Z,63.62
2022-10-20T03:01:02.742Z,64.17
2022-10-20T03:05:04.565Z,64.04
2022-10-20T03:09:06.458Z,63.71
2022-10-20T03:13:13.281Z,62.97
2022-10-20T03:17:17.412Z,63.65
2022-10-20T03:21:18.918Z,64.23
2022-10-20T03:25:18.726Z,64.71
2022-10-20T03:29:20.036Z,65.84
2022-10-20T03:33:19.641Z,67.76
2022-10-20T03:37:21.648Z,67.44
2022-10-20T03:41:20.675Z,67.31
2022-10-20T03:45:20.049Z,68.08
2022-10-20T03:49:19.275Z,69.38
2022-10-20T03:53:21.040Z,69.95
2022-10-20T03:57:20.855Z,69.09
2022-10-20T04:01:23.893Z,68.59
2022-10-20T04:05:27.076Z,68.33
2022-10-20T04:09:29.049Z,68.31
2022-10-20T04:13:28.638Z,69.43
2022-10-20T04:17:28.145Z,70.33
2022-10-20T04:21:27.844Z,71.04
2022-10-20T04:25:29.151Z,70.53
2022-10-20T04:29:28.897Z,69.45
2022-10-20T04:33:28.741Z,68.15
2022-10-20T04:37:28.553Z,66.97
2022-10-20T04:41:29.986Z,64.78
2022-10-20T04:45:30.114Z,64.22
2022-10-20T04:49:29.907Z,63.91
2022-10-20T04:53:29.626Z,63.90
2022-10-20T04:57:31.513Z,64.77
2022-10-20T05:01:33.350Z,64.81
2022-10-20T05:05:32.597Z,64.69
2022-10-20T05:09:32.703Z,64.49
2022-10-20T05:13:34.699Z,64.43
2022-10-20T05:17:34.293Z,64.59
2022-10-20T05:21:34.207Z,64.41
2022-10-20T05:25:37.198Z,64.51
2022-10-20T05:29:39.249Z,64.85
2022-10-20T05:33:38.890Z,64.30
2022-10-20T05:37:38.585Z,64.60
2022-10-20T05:41:39.184Z,65.85
2022-10-20T05:45:41.215Z,65.99
2022-10-20T05:49:40.918Z,65.04
2022-10-20T05:53:41.172Z,64.12
2022-10-20T05:57:40.278Z,62.96
2022-10-20T06:01:47.627Z,60.00
2022-10-20T06:05:47.698Z,59.33
2022-10-20T06:09:46.979Z,59.87
2022-10-20T06:13:51.850Z,60.13
2022-10-20T06:17:55.727Z,59.70
2022-10-20T06:21:55.988Z,59.45
2022-10-20T06:25:55.774Z,57.36
2022-10-20T06:29:54.619Z,56.41
2022-10-20T06:33:56.732Z,55.95
2022-10-20T06:37:57.818Z,56.39
2022-10-20T06:41:57.486Z,57.65
2022-10-20T06:46:01.236Z,55.75
2022-10-20T06:50:03.405Z,55.37
2022-10-20T06:54:03.395Z,53.90
2022-10-20T06:58:03.438Z,52.74
2022-10-20T07:02:03.999Z,51.68
2022-10-20T07:06:06.645Z,51.10
2022-10-20T07:10:06.691Z,51.02
2022-10-20T07:14:07.455Z,50.26
2022-10-20T07:18:06.697Z,50.73
2022-10-20T07:22:08.524Z,52.14
2022-10-20T07:26:09.823Z,50.85
2022-10-20T07:30:10.683Z,50.65
2022-10-20T07:34:25.142Z,49.16
2022-10-20T07:38:33.277Z,49.31
2022-10-20T07:42:33.688Z,48.99
2022-10-20T07:46:33.980Z,48.81
2022-10-20T07:50:35.271Z,49.86
2022-10-20T07:54:37.194Z,50.72
2022-10-20T07:58:36.997Z,51.20
2022-10-20T08:02:36.774Z,51.25
2022-10-20T08:06:39.259Z,50.99
2022-10-20T08:10:41.627Z,50.57
2022-10-20T08:14:40.686Z,48.60
2022-10-20T08:19:01.116Z,49.04
2022-10-20T08:23:00.820Z,49.02
2022-10-20T08:27:02.722Z,48.14
2022-10-20T08:31:04.485Z,47.15
2022-10-20T08:35:04.485Z,47.47
2022-10-20T08:39:06.182Z,46.30
2022-10-20T08:43:07.841Z,46.42
2022-10-20T08:47:19.298Z,46.09
2022-10-20T08:51:21.761Z,46.78
2022-10-20T08:55:28.341Z,45.59
2022-10-20T08:59:36.564Z,45.36
2022-10-20T09:03:38.559Z,45.77
2022-10-20T09:07:40.701Z,45.41
2022-10-20T09:11:42.270Z,43.96
2022-10-20T09:15:44.588Z,45.49
2022-10-20T09:19:48.597Z,44.15
2022-10-20T09:27:51.280Z,43.17
2022-10-20T09:31:56.718Z,42.14
2022-10-20T09:35:57.319Z,42.25
2022-10-20T09:40:00.352Z,42.54
2022-10-20T09:44:03.018Z,42.56
2022-10-20T09:48:08.460Z,42.21
2022-10-20T09:52:24.993Z,42.04
2022-10-20T09:56:34.630Z,41.42
2022-10-20T10:00:38.355Z,40.67
2022-10-20T10:04:42.970Z,40.69
2022-10-20T10:08:47.868Z,41.52
2022-10-20T10:12:53.915Z,41.47
2022-10-20T10:16:53.197Z,40.42
2022-10-20T10:21:03.225Z,40.38
2022-10-20T10:25:04.893Z,41.19
2022-10-20T10:29:05.851Z,40.29
2022-10-20T10:33:26.197Z,41.09
2022-10-20T10:37:33.917Z,40.49
2022-10-20T10:42:02.456Z,39.55
2022-10-20T10:46:07.255Z,39.94
2022-10-20T10:50:27.970Z,40.58
2022-10-20T10:54:37.651Z,40.19
2022-10-20T10:58:47.303Z,40.42
2022-10-20T11:03:18.311Z,40.31
2022-10-20T11:07:31.767Z,39.75
2022-10-20T11:11:46.130Z,39.68
2022-10-20T11:15:57.062Z,39.46
2022-10-20T11:20:14.293Z,39.63
2022-10-20T11:24:35.224Z,39.78
2022-10-20T11:28:44.170Z,39.07
2022-10-20T11:32:48.620Z,38.69
2022-10-20T11:37:07.002Z,38.87
2022-10-20T11:41:09.389Z,38.80
2022-10-20T11:45:30.521Z,38.91
2022-10-20T11:49:33.839Z,39.12
2022-10-20T11:53:59.295Z,38.80
2022-10-20T11:58:17.589Z,38.18
2022-10-20T12:03:03.077Z,38.68
2022-10-20T12:07:32.815Z,38.65
2022-10-20T12:11:37.290Z,37.46
2022-10-20T12:15:49.068Z,37.95
2022-10-20T12:20:58.168Z,38.20
2022-10-20T12:25:42.004Z,37.85
2022-10-20T12:30:06.648Z,38.48
2022-10-20T12:34:08.835Z,39.14
2022-10-20T12:38:18.788Z,38.71
2022-10-20T12:42:27.381Z,38.28
2022-10-20T12:46:34.542Z,38.84
2022-10-20T12:50:38.720Z,38.31
2022-10-20T12:54:44.983Z,38.08
2022-10-20T12:59:24.167Z,37.96
2022-10-20T13:03:49.161Z,37.92
2022-10-20T13:08:06.666Z,38.21
2022-10-20T13:12:06.970Z,38.63
2022-10-20T13:16:27.958Z,38.20
2022-10-20T13:20:51.632Z,38.39
2022-10-20T13:24:53.601Z,38.14
2022-10-20T13:28:58.547Z,38.18
2022-10-20T13:37:43.962Z,38.82
2022-10-20T13:41:54.020Z,39.10
2022-10-20T13:46:19.796Z,39.36
2022-10-20T13:50:24.586Z,39.64
2022-10-20T13:54:30.140Z,40.25
2022-10-20T13:58:29.960Z,39.77
2022-10-20T14:02:31.824Z,40.04
2022-10-20T14:06:33.687Z,40.22
2022-10-20T14:10:44.415Z,40.77
2022-10-20T14:14:47.371Z,40.42
2022-10-20T14:19:02.765Z,40.29
2022-10-20T14:23:04.305Z,40.56
2022-10-20T14:27:08.141Z,40.55
2022-10-20T14:31:08.407Z,40.84
2022-10-20T14:35:22.974Z,41.20
2022-10-20T14:39:32.236Z,41.40
2022-10-20T14:43:40.790Z,41.26
2022-10-20T14:47:43.382Z,41.50
2022-10-20T14:51:47.365Z,41.78
2022-10-20T14:55:47.408Z,41.42
2022-10-20T15:00:02.189Z,41.52
2022-10-20T15:04:15.495Z,41.97
2022-10-20T15:08:26.454Z,42.36
2022-10-20T15:12:33.568Z,42.40
2022-10-20T15:16:43.090Z,42.71
2022-10-20T15:20:43.118Z,43.08
2022-10-20T15:24:42.996Z,43.46
2022-10-20T15:28:46.445Z,43.44
2022-10-20T15:32:48.697Z,43.22
2022-10-20T15:36:50.343Z,43.60
2022-10-20T15:40:51.138Z,43.58
2022-10-20T15:44:50.999Z,44.06
2022-10-20T15:48:52.445Z,44.33
2022-10-20T15:52:52.097Z,44.50
2022-10-20T15:56:52.137Z,45.13
2022-10-20T16:00:52.391Z,45.24
2022-10-20T16:04:54.400Z,45.07
2022-10-20T16:08:53.917Z,45.38
2022-10-20T16:12:54.093Z,45.60
2022-10-20T16:16:53.387Z,45.58
2022-10-20T16:20:55.349Z,45.76
2022-10-20T16:24:55.283Z,46.06
2022-10-20T16:28:56.253Z,46.66
2022-10-20T16:32:55.860Z,47.18
2022-10-20T16:36:59.698Z,47.42
2022-10-20T16:41:03.569Z,47.12
2022-10-20T16:45:03.623Z,46.81
2022-10-20T16:49:02.520Z,46.87
2022-10-20T16:53:04.660Z,47.28
2022-10-20T16:57:06.661Z,47.71
2022-10-20T17:01:15.266Z,47.92
2022-10-20T17:05:14.502Z,48.47
2022-10-20T17:09:17.248Z,48.59
2022-10-20T17:13:16.548Z,48.92
2022-10-20T17:17:16.538Z,49.19
2022-10-20T17:21:17.291Z,49.46
2022-10-20T17:25:21.966Z,50.08
2022-10-20T17:29:25.180Z,50.84
2022-10-20T17:33:31.171Z,51.88
2022-10-20T17:37:33.000Z,52.50
2022-10-20T17:41:35.337Z,52.28
2022-10-20T17:45:38.066Z,51.74
2022-10-20T17:49:37.603Z,51.40
2022-10-20T17:53:40.042Z,51.11
2022-10-20T17:57:44.671Z,50.57
2022-10-20T18:01:45.822Z,50.05
2022-10-20T18:05:45.930Z,50.50
2022-10-20T18:09:46.003Z,50.35
2022-10-20T18:13:48.166Z,50.42
2022-10-20T18:17:47.829Z,50.72
2022-10-20T18:21:48.974Z,51.08
2022-10-20T18:25:48.765Z,51.88
2022-10-20T18:29:53.366Z,51.85
2022-10-20T18:33:56.027Z,51.99
2022-10-20T18:37:57.252Z,52.23
2022-10-20T18:41:57.009Z,52.09
2022-10-20T18:45:58.190Z,52.05
2022-10-20T18:49:58.175Z,52.19
2022-10-20T18:53:59.784Z,52.78
2022-10-20T18:57:59.496Z,52.67
2022-10-20T19:02:00.817Z,52.42
2022-10-20T19:06:08.909Z,52.22
2022-10-20T19:10:13.534Z,51.93
2022-10-20T19:14:26.736Z,51.59
2022-10-20T19:18:31.441Z,51.61
2022-10-20T19:22:30.579Z,51.61
2022-10-20T19:26:34.596Z,51.62
2022-10-20T19:30:36.952Z,51.77
2022-10-20T19:34:42.237Z,51.86
2022-10-20T19:45:00.938Z,52.32
2022-10-20T19:49:03.842Z,52.75
2022-10-20T19:53:05.182Z,52.91
2022-10-20T19:57:06.197Z,53.23
2022-10-20T20:01:11.242Z,53.21
2022-10-20T20:05:21.493Z,53.69
2022-10-20T20:09:23.174Z,54.32
2022-10-20T20:13:23.643Z,54.17
2022-10-20T20:17:23.265Z,54.23
2022-10-20T20:21:22.692Z,54.22
2022-10-20T20:25:24.428Z,54.21
2022-10-20T20:29:24.014Z,54.26
2022-10-20T20:33:23.538Z,54.34
2022-10-20T20:37:22.962Z,54.27
2022-10-20T20:41:25.707Z,54.03
2022-10-20T20:45:25.217Z,54.62
2022-10-20T20:49:24.412Z,54.54
2022-10-20T20:53:24.729Z,54.66
2022-10-20T20:57:26.582Z,54.63
2022-10-20T21:01:28.024Z,55.25
2022-10-20T21:05:27.712Z,55.18
2022-10-20T21:09:26.689Z,55.33
2022-10-20T21:13:28.393Z,56.16
2022-10-20T21:17:27.354Z,56.35
2022-10-20T21:21:28.662Z,56.99
2022-10-20T21:25:28.215Z,57.27
2022-10-20T21:29:29.509Z,57.56
2022-10-20T21:33:30.181Z,57.51
2022-10-20T21:37:30.414Z,57.56
2022-10-20T21:41:32.014Z,57.63
2022-10-20T21:45:33.620Z,57.72
2022-10-20T21:49:33.447Z,57.75
2022-10-20T21:53:32.993Z,57.77
2022-10-20T21:57:32.039Z,58.04
2022-10-20T22:01:33.449Z,57.93
2022-10-20T22:05:32.935Z,58.00
2022-10-20T22:09:32.560Z,57.98
2022-10-20T22:13:31.712Z,58.02
2022-10-20T22:17:33.243Z,57.74
2022-10-20T22:21:33.139Z,58.09
2022-10-20T22:25:32.562Z,57.45
2022-10-20T22:29:32.087Z,57.58
2022-10-20T22:33:33.414Z,56.99
2022-10-20T22:37:32.592Z,56.79
2022-10-20T22:41:32.263Z,56.01
2022-10-20T22:45:31.231Z,54.60
2022-10-20T22:49:32.773Z,52.93
2022-10-20T22:53:32.178Z,49.55
2022-10-20T22:57:31.615Z,49.50
2022-10-20T23:01:31.310Z,48.17
2022-10-20T23:05:32.890Z,47.24
2022-10-20T23:09:32.402Z,46.34
2022-10-20T23:13:31.513Z,45.63
2022-10-20T23:17:30.949Z,45.20
2022-10-20T23:21:32.437Z,45.41
2022-10-20T23:25:31.898Z,45.64
2022-10-20T23:29:31.211Z,45.43
2022-10-20T23:33:30.599Z,46.29
2022-10-20T23:37:32.294Z,47.42
2022-10-20T23:41:31.671Z,48.41
2022-10-20T23:45:34.052Z,50.05
2022-10-20T23:49:36.396Z,51.25
2022-10-20T23:53:37.666Z,52.66
2022-10-20T23:57:37.284Z,52.94
